Delta Audrey — WDH5227 — position and weather

sailwx.info

Track history (hours):
 
Tides and Currents Weather Stations Pressure Air Temp Water Temp Dewpoint Dewpoint Depression Visibility Wind Speed Wind Dir Waves Ship Positions

Delta Audrey

Owner: BAYDELTA MARITIME LLC, EMBARCADERO, CA. More information available from US FCC via Universal Licensing System and Coast Guard Vessel Documentation Center.

Last reported at 2018-Jan-23 02:12 UTC. Time now 2018-Jan-23 04:23 UTC.
Position N 33°43' W 118°13'.

Length 30 m; draft 4.8 m.

Type: Towing. MMSI: 367625810.

Date/timePositionNaut miles runAvg speedWind from/ knotsBaromVisibWave heightAir tempDewpointWater temp
2018-Jan-23 02:12N 33°43' W 118°13'3 1.4
2018-Jan-23 00:06N 33°44' W 118°17'0 0.1
2018-Jan-22 23:59N 33°44' W 118°17'0 0.0
2018-Jan-22 23:29N 33°44' W 118°17'0 0.0
2018-Jan-22 22:37N 33°44' W 118°17'3 2.0
2018-Jan-22 20:58N 33°45' W 118°13'1 0.4
2018-Jan-22 17:38N 33°46' W 118°13'3 0.5
2018-Jan-22 12:51N 33°46' W 118°17'3 0.3
2018-Jan-22 01:09N 33°45' W 118°13'0 0.0
2018-Jan-22 01:00N 33°45' W 118°13'1 2.4
2018-Jan-22 00:30N 33°45' W 118°14'0 0.1
2018-Jan-21 23:59N 33°45' W 118°14'2 4.2
2018-Jan-21 23:29N 33°44' W 118°12'  
2018-Jan-18 23:30N 33°45' W 118°16'0 0.6
2018-Jan-18 22:58N 33°45' W 118°17'1 2.6
2018-Jan-18 22:30N 33°44' W 118°17'3 2.8
2018-Jan-18 21:33N 33°44' W 118°13'0 8.7
2018-Jan-18 21:30N 33°44' W 118°13'1 1.2
2018-Jan-18 20:55N 33°45' W 118°13'0 0.6
2018-Jan-18 20:22N 33°45' W 118°13'0 0.5
2018-Jan-18 19:25N 33°45' W 118°12'3 6.4
2018-Jan-18 18:53N 33°44' W 118°16'1 0.1
2018-Jan-18 12:43N 33°43' W 118°16'1 1.9
2018-Jan-18 12:26N 33°44' W 118°15'0 0.1
2018-Jan-18 11:59N 33°44' W 118°15'1 1.6
2018-Jan-18 11:30N 33°43' W 118°16'3 1.0
2018-Jan-18 08:24N 33°45' W 118°13'1 1.3
2018-Jan-18 07:53N 33°45' W 118°13'1 0.3
2018-Jan-18 05:41N 33°45' W 118°13'0 0.0
2018-Jan-18 05:29N 33°45' W 118°13'0 0.0
2018-Jan-18 04:41N 33°45' W 118°13'3 6.9
2018-Jan-18 04:18N 33°43' W 118°14'2 7.2
2018-Jan-18 04:00N 33°44' W 118°17'  
Track history (hours):
 
Tides and Currents Weather Stations Pressure Air Temp Water Temp Dewpoint Dewpoint Depression Visibility Wind Speed Wind Dir Waves Ship Positions

Delta Audrey

Owner: BAYDELTA MARITIME LLC, EMBARCADERO, CA. More information available from US FCC via Universal Licensing System and Coast Guard Vessel Documentation Center.

Last reported at 2018-Jan-23 02:12 UTC. Time now 2018-Jan-23 04:23 UTC.
Position N 33°43' W 118°13'.

Length 30 m; draft 4.8 m.

Type: Towing. MMSI: 367625810.

Date/timePositionNaut miles runAvg speedWind from/ knotsBaromVisibWave heightAir tempDewpointWater temp
2018-Jan-23 02:12N 33°43' W 118°13'3 1.4
2018-Jan-23 00:06N 33°44' W 118°17'0 0.1
2018-Jan-22 23:59N 33°44' W 118°17'0 0.0
2018-Jan-22 23:29N 33°44' W 118°17'0 0.0
2018-Jan-22 22:37N 33°44' W 118°17'3 2.0
2018-Jan-22 20:58N 33°45' W 118°13'1 0.4
2018-Jan-22 17:38N 33°46' W 118°13'3 0.5
2018-Jan-22 12:51N 33°46' W 118°17'3 0.3
2018-Jan-22 01:09N 33°45' W 118°13'0 0.0
2018-Jan-22 01:00N 33°45' W 118°13'1 2.4
2018-Jan-22 00:30N 33°45' W 118°14'0 0.1
2018-Jan-21 23:59N 33°45' W 118°14'2 4.2
2018-Jan-21 23:29N 33°44' W 118°12'  
2018-Jan-18 23:30N 33°45' W 118°16'0 0.6
2018-Jan-18 22:58N 33°45' W 118°17'1 2.6
2018-Jan-18 22:30N 33°44' W 118°17'3 2.8
2018-Jan-18 21:33N 33°44' W 118°13'0 8.7
2018-Jan-18 21:30N 33°44' W 118°13'1 1.2
2018-Jan-18 20:55N 33°45' W 118°13'0 0.6
2018-Jan-18 20:22N 33°45' W 118°13'0 0.5
2018-Jan-18 19:25N 33°45' W 118°12'3 6.4
2018-Jan-18 18:53N 33°44' W 118°16'1 0.1
2018-Jan-18 12:43N 33°43' W 118°16'1 1.9
2018-Jan-18 12:26N 33°44' W 118°15'0 0.1
2018-Jan-18 11:59N 33°44' W 118°15'1 1.6
2018-Jan-18 11:30N 33°43' W 118°16'3 1.0
2018-Jan-18 08:24N 33°45' W 118°13'1 1.3
2018-Jan-18 07:53N 33°45' W 118°13'1 0.3
2018-Jan-18 05:41N 33°45' W 118°13'0 0.0
2018-Jan-18 05:29N 33°45' W 118°13'0 0.0
2018-Jan-18 04:41N 33°45' W 118°13'3 6.9
2018-Jan-18 04:18N 33°43' W 118°14'2 7.2
2018-Jan-18 04:00N 33°44' W 118°17'  

Dump ship's entire track history